Time;durP1;ratioP1;P1;durP2;ratioP2;P2;SDS_P1;SDS_P2;PMS_P1;PMS_P2;Temp;Humidity;BMP_temperature;BMP_pressure;BME280_temperature;BME280_humidity;BME280_pressure;Samples;Min_cycle;Max_cycle;Signal;HPM_P1;HPM_P2
2021/04/02 00:01:41;;;;;;;10.97;6.97;;;6.30;99.90;;;;;;5031091;28;20175;-64
2021/04/02 00:04:07;;;;;;;10.47;7.03;;;6.30;99.90;;;;;;5031028;28;20394;-64
2021/04/02 00:06:33;;;;;;;15.53;8.80;;;6.30;99.90;;;;;;5031005;28;20597;-64
2021/04/02 00:08:58;;;;;;;16.80;7.00;;;6.30;99.90;;;;;;5031060;28;20207;-64
2021/04/02 00:11:24;;;;;;;12.83;7.23;;;6.30;99.90;;;;;;5030792;28;20176;-63
2021/04/02 00:13:49;;;;;;;14.10;7.57;;;6.40;99.90;;;;;;5031270;28;20168;-64
2021/04/02 00:16:18;;;;;;;12.40;6.80;;;6.40;99.90;;;;;;5033550;28;20232;-63
2021/04/02 00:18:44;;;;;;;15.03;7.80;;;6.50;99.90;;;;;;5035177;28;20198;-63
2021/04/02 00:21:11;;;;;;;11.07;7.87;;;6.60;99.90;;;;;;5034519;28;20180;-64
2021/04/02 00:23:38;;;;;;;12.23;7.30;;;6.60;99.90;;;;;;5035144;28;20227;-63
2021/04/02 00:26:12;;;;;;;11.43;7.13;;;6.70;99.90;;;;;;5034768;28;20270;-64
2021/04/02 00:28:38;;;;;;;13.33;7.20;;;6.70;99.90;;;;;;5034978;28;20296;-64
2021/04/02 00:31:03;;;;;;;9.30;5.93;;;6.80;99.90;;;;;;5034436;28;20199;-64
2021/04/02 00:33:32;;;;;;;14.37;7.50;;;6.80;99.90;;;;;;5034919;28;20589;-64
2021/04/02 00:35:59;;;;;;;13.17;7.57;;;6.90;99.90;;;;;;5034610;28;20179;-63
2021/04/02 00:38:25;;;;;;;10.67;6.60;;;7.00;99.90;;;;;;5034750;28;20209;-64
2021/04/02 00:40:55;;;;;;;14.87;7.53;;;7.00;99.90;;;;;;5034299;28;20184;-64
2021/04/02 00:43:30;;;;;;;11.97;6.73;;;7.00;99.90;;;;;;5034744;28;20615;-64
2021/04/02 00:45:56;;;;;;;9.00;6.97;;;7.10;99.90;;;;;;5034644;28;20301;-64
2021/04/02 00:48:22;;;;;;;12.03;7.50;;;7.10;99.90;;;;;;5034508;28;20231;-64
2021/04/02 00:50:52;;;;;;;10.63;7.17;;;7.10;99.90;;;;;;5034259;28;20176;-64
2021/04/02 00:53:19;;;;;;;11.23;6.47;;;7.10;99.90;;;;;;5034570;28;20206;-64
2021/04/02 00:55:46;;;;;;;12.37;7.67;;;7.10;99.90;;;;;;5034337;28;20187;-64
2021/04/02 00:58:14;;;;;;;14.60;7.50;;;7.00;99.90;;;;;;5034326;28;20295;-64
2021/04/02 01:00:41;;;;;;;12.40;7.57;;;6.90;99.90;;;;;;5033920;28;20259;-64
2021/04/02 01:03:07;;;;;;;15.10;7.63;;;6.90;99.90;;;;;;5034663;28;20207;-64
2021/04/02 01:05:37;;;;;;;12.23;7.20;;;6.80;99.90;;;;;;5034181;28;20296;-64
2021/04/02 01:08:13;;;;;;;19.87;8.83;;;6.80;99.90;;;;;;5033925;28;20565;-64
2021/04/02 01:10:40;;;;;;;16.70;8.33;;;6.60;99.90;;;;;;5033752;28;20175;-63
2021/04/02 01:13:07;;;;;;;14.87;8.63;;;6.50;99.90;;;;;;5034225;28;20576;-64
2021/04/02 01:15:40;;;;;;;17.03;8.67;;;6.40;99.90;;;;;;5032775;28;20187;-64
2021/04/02 01:18:20;;;;;;;13.33;8.80;;;6.20;99.90;;;;;;5033926;28;20191;-64
2021/04/02 01:20:49;;;;;;;18.43;8.83;;;6.10;99.90;;;;;;5033650;28;20242;-64
2021/04/02 01:23:20;;;;;;;14.80;8.90;;;6.00;99.90;;;;;;5033970;28;20218;-64
2021/04/02 01:26:31;;;;;;;13.00;8.97;;;5.90;99.90;;;;;;5033225;28;20545;-64
2021/04/02 01:29:08;;;;;;;13.93;9.23;;;5.70;99.90;;;;;;5032145;28;20588;-64
2021/04/02 01:31:37;;;;;;;17.50;9.47;;;5.60;99.90;;;;;;5033462;28;20263;-63
2021/04/02 01:34:05;;;;;;;16.37;9.83;;;5.50;99.90;;;;;;5013965;28;20183;-62
2021/04/02 01:36:32;;;;;;;17.10;10.20;;;5.50;99.90;;;;;;5013952;28;20179;-64
2021/04/02 01:38:59;;;;;;;18.00;9.83;;;5.50;99.90;;;;;;5032905;28;20261;-64
2021/04/02 01:41:28;;;;;;;16.40;9.57;;;5.50;99.90;;;;;;5033620;28;20645;-63
2021/04/02 01:43:58;;;;;;;16.77;9.80;;;5.40;99.90;;;;;;5033369;28;20586;-64
2021/04/02 01:46:26;;;;;;;18.53;10.67;;;5.30;99.90;;;;;;5033740;28;20168;-64
2021/04/02 01:48:55;;;;;;;15.37;10.37;;;5.30;99.90;;;;;;5033132;28;20553;-63
2021/04/02 01:51:23;;;;;;;15.50;10.80;;;5.20;99.90;;;;;;5033138;28;20254;-63
2021/04/02 01:53:50;;;;;;;17.67;10.30;;;5.20;99.90;;;;;;5033325;28;20175;-64
2021/04/02 01:56:17;;;;;;;17.67;10.67;;;5.30;99.90;;;;;;5033051;28;20171;-63
2021/04/02 01:58:44;;;;;;;18.80;11.10;;;5.30;99.90;;;;;;5033186;28;20665;-63
2021/04/02 02:01:12;;;;;;;16.07;11.40;;;5.30;99.90;;;;;;5033070;28;20218;-64
2021/04/02 02:03:40;;;;;;;15.33;10.63;;;5.30;99.90;;;;;;5033027;28;20179;-64
2021/04/02 02:06:08;;;;;;;18.43;11.13;;;5.40;99.90;;;;;;5033164;28;20171;-62
2021/04/02 02:08:35;;;;;;;16.13;10.33;;;5.40;99.90;;;;;;5035321;28;20699;-68
2021/04/02 02:11:05;;;;;;;17.27;10.73;;;5.50;99.90;;;;;;5037072;28;20188;-65
2021/04/02 02:13:32;;;;;;;21.63;10.37;;;5.60;99.90;;;;;;5036713;28;20178;-69
2021/04/02 02:15:59;;;;;;;15.63;10.80;;;5.60;99.90;;;;;;5036346;28;20178;-64
2021/04/02 02:18:26;;;;;;;16.73;10.27;;;5.70;99.90;;;;;;5036263;28;20707;-68
2021/04/02 02:20:53;;;;;;;16.13;10.97;;;5.70;99.90;;;;;;5036903;28;20641;-67
2021/04/02 02:23:19;;;;;;;15.50;10.90;;;5.90;99.90;;;;;;5036191;28;20514;-66
2021/04/02 02:25:45;;;;;;;20.60;11.20;;;6.00;99.90;;;;;;5035463;28;20191;-67
2021/04/02 02:28:11;;;;;;;15.50;11.40;;;6.10;99.90;;;;;;5036085;28;20203;-68
2021/04/02 02:30:37;;;;;;;15.87;10.90;;;6.20;99.90;;;;;;5035964;28;20314;-70
2021/04/02 02:33:03;;;;;;;17.23;10.60;;;6.20;99.90;;;;;;5036109;28;20187;-66
2021/04/02 02:35:29;;;;;;;14.50;10.70;;;6.20;99.90;;;;;;5036118;28;20182;-67
2021/04/02 02:37:57;;;;;;;15.53;10.43;;;6.20;99.90;;;;;;5035238;28;20665;-68
2021/04/02 02:40:27;;;;;;;15.40;10.10;;;6.30;99.90;;;;;;5035567;28;20585;-65
2021/04/02 02:42:55;;;;;;;13.67;10.73;;;6.30;99.90;;;;;;5035798;28;20203;-67
2021/04/02 02:45:22;;;;;;;14.47;9.50;;;6.40;99.90;;;;;;5036546;28;20572;-68
2021/04/02 02:47:48;;;;;;;15.00;10.70;;;6.50;99.90;;;;;;5035635;28;20203;-69
2021/04/02 02:50:25;;;;;;;14.77;9.90;;;6.50;99.90;;;;;;5035305;28;20238;-69
2021/04/02 02:52:52;;;;;;;14.83;9.30;;;6.60;99.90;;;;;;5034082;28;20274;-69
2021/04/02 02:55:20;;;;;;;14.80;9.97;;;6.60;99.90;;;;;;5034612;28;20218;-69
2021/04/02 02:57:49;;;;;;;13.03;9.63;;;6.70;99.90;;;;;;5035535;28;20217;-66
2021/04/02 03:00:18;;;;;;;14.10;9.37;;;6.70;99.90;;;;;;5034399;28;20195;-68
2021/04/02 03:02:47;;;;;;;15.80;10.37;;;6.70;99.90;;;;;;5035210;28;20187;-68
2021/04/02 03:05:19;;;;;;;15.83;10.57;;;6.70;99.90;;;;;;5035153;28;20755;-66
2021/04/02 03:07:50;;;;;;;16.20;10.40;;;6.80;99.90;;;;;;5035569;28;20219;-67
2021/04/02 03:10:16;;;;;;;15.10;11.40;;;6.70;99.90;;;;;;5037535;28;20207;-68
2021/04/02 03:12:44;;;;;;;15.77;11.07;;;6.70;99.90;;;;;;5038038;28;20656;-67
2021/04/02 03:15:13;;;;;;;12.10;10.77;;;6.80;99.90;;;;;;5038360;28;20546;-69
2021/04/02 03:17:41;;;;;;;12.27;10.07;;;6.90;99.90;;;;;;5037754;28;20203;-66
2021/04/02 03:20:08;;;;;;;15.90;10.40;;;7.00;99.90;;;;;;5036007;28;20179;-65
2021/04/02 03:22:34;;;;;;;13.93;10.33;;;6.90;99.90;;;;;;5038285;28;20203;-68
2021/04/02 03:25:09;;;;;;;15.87;10.43;;;6.80;99.90;;;;;;5036894;28;20194;-67
2021/04/02 03:27:39;;;;;;;17.50;10.63;;;6.70;99.90;;;;;;5037994;28;20213;-69
2021/04/02 03:30:08;;;;;;;24.47;11.80;;;6.70;99.90;;;;;;5037076;28;20207;-67
2021/04/02 03:32:36;;;;;;;19.20;11.43;;;6.60;99.90;;;;;;5038012;28;20676;-69
2021/04/02 03:35:03;;;;;;;19.30;11.73;;;6.50;99.90;;;;;;5037226;28;20183;-67
2021/04/02 03:37:33;;;;;;;15.97;11.60;;;6.40;99.90;;;;;;5037696;28;20218;-66
2021/04/02 03:40:00;;;;;;;20.90;12.13;;;6.30;99.90;;;;;;5037604;28;20178;-67
2021/04/02 03:42:28;;;;;;;16.53;11.90;;;6.30;99.90;;;;;;5037318;28;20233;-69
2021/04/02 03:44:55;;;;;;;20.23;12.33;;;6.30;99.90;;;;;;5037758;28;20270;-67
2021/04/02 03:47:21;;;;;;;16.30;11.20;;;6.20;99.90;;;;;;5037101;28;20171;-66
2021/04/02 03:49:48;;;;;;;24.37;13.40;;;6.10;99.90;;;;;;5035965;28;20207;-67
2021/04/02 03:52:20;;;;;;;19.10;12.83;;;6.10;99.90;;;;;;5037370;28;20202;-69
2021/04/02 03:54:49;;;;;;;24.23;13.10;;;6.10;99.90;;;;;;5035639;28;20175;-64
2021/04/02 03:57:17;;;;;;;18.20;11.60;;;6.10;99.90;;;;;;5031201;28;20184;-63
2021/04/02 03:59:44;;;;;;;18.70;12.20;;;6.20;99.90;;;;;;5031196;28;20175;-64
2021/04/02 04:02:13;;;;;;;16.57;11.83;;;6.20;99.90;;;;;;5031025;28;20202;-63
2021/04/02 04:04:40;;;;;;;20.70;12.50;;;6.10;99.90;;;;;;5031376;28;20652;-64
2021/04/02 04:07:08;;;;;;;18.83;12.57;;;6.10;99.90;;;;;;5032454;28;20184;-64
2021/04/02 04:09:36;;;;;;;21.17;13.00;;;6.10;99.90;;;;;;5032069;28;20222;-63
2021/04/02 04:12:04;;;;;;;19.13;12.77;;;6.00;99.90;;;;;;5030768;28;20183;-63
2021/04/02 04:14:31;;;;;;;21.43;12.87;;;6.00;99.90;;;;;;5031794;28;20175;-63
2021/04/02 04:17:00;;;;;;;23.17;12.53;;;6.00;99.90;;;;;;5031440;28;20583;-63
2021/04/02 04:19:28;;;;;;;20.70;11.80;;;6.00;99.90;;;;;;5030896;28;20222;-63
2021/04/02 04:21:54;;;;;;;18.83;12.77;;;6.00;99.90;;;;;;5030998;28;20191;-63
2021/04/02 04:24:22;;;;;;;21.20;11.70;;;6.00;99.90;;;;;;5030755;28;20187;-63
2021/04/02 04:26:50;;;;;;;17.30;12.63;;;5.90;99.90;;;;;;5031240;28;20186;-63
2021/04/02 04:29:27;;;;;;;21.83;11.70;;;5.70;99.90;;;;;;5030811;28;20203;-62
2021/04/02 04:31:55;;;;;;;22.07;12.40;;;5.60;99.90;;;;;;5030988;28;20176;-63
2021/04/02 04:34:22;;;;;;;22.70;13.37;;;5.40;99.90;;;;;;5030831;28;20513;-63
2021/04/02 04:36:50;;;;;;;17.30;12.13;;;5.30;99.90;;;;;;5031106;28;20182;-63
2021/04/02 04:39:16;;;;;;;19.63;14.27;;;5.30;99.90;;;;;;5030759;28;20200;-63
2021/04/02 04:41:43;;;;;;;21.63;13.10;;;5.20;99.90;;;;;;5030513;28;20187;-63
2021/04/02 04:44:10;;;;;;;20.13;13.23;;;5.10;99.90;;;;;;5030901;28;20179;-63
2021/04/02 04:46:36;;;;;;;27.27;14.67;;;5.00;99.90;;;;;;5030649;28;20629;-63
2021/04/02 04:49:01;;;;;;;23.60;14.67;;;5.00;99.90;;;;;;5030939;28;20216;-63
2021/04/02 04:51:32;;;;;;;24.30;15.27;;;5.00;99.90;;;;;;5030304;28;20298;-63
2021/04/02 04:53:59;;;;;;;22.13;13.37;;;5.00;99.90;;;;;;5031000;28;20180;-63
2021/04/02 04:56:29;;;;;;;19.60;13.53;;;4.90;99.90;;;;;;5030475;28;20641;-63
2021/04/02 04:59:00;;;;;;;21.70;14.10;;;4.80;99.90;;;;;;5030988;28;20198;-63
2021/04/02 05:01:29;;;;;;;26.10;15.13;;;4.80;99.90;;;;;;5031534;28;20179;-63
2021/04/02 05:03:55;;;;;;;28.40;14.47;;;4.70;99.90;;;;;;5034510;28;20179;-63
2021/04/02 05:06:24;;;;;;;21.40;14.70;;;4.70;99.90;;;;;;5034044;28;20500;-64
2021/04/02 05:08:51;;;;;;;25.27;13.80;;;4.70;99.90;;;;;;5033933;28;20246;-63
2021/04/02 05:11:23;;;;;;;26.67;15.50;;;4.70;99.90;;;;;;5033920;28;20266;-63
2021/04/02 05:13:51;;;;;;;27.03;14.50;;;4.70;99.90;;;;;;5033998;28;20222;-63
2021/04/02 05:16:19;;;;;;;29.43;15.50;;;4.80;99.90;;;;;;5034117;28;20187;-63
2021/04/02 05:18:47;;;;;;;27.07;16.17;;;4.80;99.90;;;;;;5034412;28;20211;-63
2021/04/02 05:21:13;;;;;;;22.33;15.60;;;4.80;99.90;;;;;;5033220;28;20199;-63
2021/04/02 05:23:39;;;;;;;24.70;16.67;;;4.90;99.90;;;;;;5033781;28;20222;-63
2021/04/02 05:26:06;;;;;;;28.53;16.63;;;4.90;99.90;;;;;;5034025;28;20186;-62
2021/04/02 05:28:32;;;;;;;24.43;15.13;;;4.90;99.90;;;;;;5033355;28;20199;-63
2021/04/02 05:30:58;;;;;;;29.40;16.33;;;4.90;99.90;;;;;;5033070;28;20178;-63
2021/04/02 05:33:23;;;;;;;29.97;17.80;;;5.00;99.90;;;;;;5033641;28;20677;-63
2021/04/02 05:35:49;;;;;;;25.70;16.30;;;5.10;99.90;;;;;;5033950;28;20680;-63
2021/04/02 05:38:14;;;;;;;33.50;16.43;;;5.20;99.90;;;;;;5033406;28;20215;-63
2021/04/02 05:40:40;;;;;;;30.23;16.27;;;5.30;99.90;;;;;;5033726;28;20254;-63
2021/04/02 05:43:11;;;;;;;23.40;16.17;;;5.50;99.90;;;;;;5033197;28;20183;-63
2021/04/02 05:45:39;;;;;;;26.27;16.80;;;5.60;99.90;;;;;;5033369;28;20274;-63
2021/04/02 05:48:07;;;;;;;23.77;14.70;;;5.60;99.90;;;;;;5033765;28;20195;-63
2021/04/02 05:50:35;;;;;;;19.47;13.80;;;5.80;99.90;;;;;;5018798;28;20782;-63
2021/04/02 05:53:09;;;;;;;24.27;15.77;;;5.90;99.90;;;;;;5033600;28;20509;-63
2021/04/02 05:55:39;;;;;;;27.47;18.23;;;5.90;99.90;;;;;;5032968;28;20638;-63
2021/04/02 05:58:06;;;;;;;20.70;14.60;;;6.00;99.90;;;;;;5033209;28;20241;-63
2021/04/02 06:00:35;;;;;;;23.37;15.97;;;6.10;99.90;;;;;;5032333;28;20599;-63
2021/04/02 06:03:04;;;;;;;21.53;15.30;;;6.20;99.90;;;;;;5033269;28;20234;-60
2021/04/02 06:05:30;;;;;;;20.60;15.57;;;6.20;99.90;;;;;;5032812;28;20238;-63
2021/04/02 06:07:57;;;;;;;22.83;15.00;;;6.30;99.90;;;;;;5033278;28;20605;-63
2021/04/02 06:10:23;;;;;;;22.47;14.00;;;6.30;99.90;;;;;;5032135;28;20238;-63
2021/04/02 06:12:49;;;;;;;20.57;13.67;;;6.40;99.90;;;;;;5033194;28;20172;-63
2021/04/02 06:15:18;;;;;;;25.47;13.47;;;6.40;99.90;;;;;;5031499;28;20186;-63
2021/04/02 06:18:06;;;;;;;21.63;13.83;;;6.30;99.90;;;;;;5033115;28;20606;-62
2021/04/02 06:20:44;;;;;;;28.03;15.27;;;6.30;99.90;;;;;;5027767;28;20198;-63
2021/04/02 06:23:18;;;;;;;26.80;13.50;;;6.30;99.90;;;;;;5032884;28;20621;-63
2021/04/02 06:25:51;;;;;;;27.13;14.53;;;6.30;99.90;;;;;;5032711;28;20190;-63
2021/04/02 06:28:24;;;;;;;34.07;17.40;;;6.30;99.90;;;;;;5032130;28;20211;-63
2021/04/02 06:31:06;;;;;;;35.63;19.57;;;6.30;99.90;;;;;;5032788;28;20697;-63
2021/04/02 06:33:38;;;;;;;41.57;18.60;;;6.30;99.90;;;;;;5032366;28;20179;-62
2021/04/02 06:36:12;;;;;;;40.30;20.67;;;6.30;99.90;;;;;;5032867;28;20534;-64
2021/04/02 06:38:47;;;;;;;47.10;22.07;;;6.40;99.90;;;;;;5032159;28;20209;-63
2021/04/02 06:41:13;;;;;;;51.57;25.97;;;6.60;99.90;;;;;;5032326;28;20185;-63
2021/04/02 06:43:47;;;;;;;57.37;28.07;;;6.90;99.90;;;;;;5032177;28;20286;-64
2021/04/02 06:46:27;;;;;;;47.50;25.73;;;7.00;99.90;;;;;;5032722;28;20653;-64
2021/04/02 06:49:13;;;;;;;59.80;25.90;;;7.10;99.90;;;;;;5032117;28;20225;-63
2021/04/02 06:51:57;;;;;;;57.13;27.70;;;7.20;99.90;;;;;;5032085;28;20182;-63
2021/04/02 06:54:25;;;;;;;47.77;26.00;;;7.20;99.90;;;;;;5031754;28;20187;-63
2021/04/02 06:57:02;;;;;;;52.63;26.93;;;7.30;99.90;;;;;;5032376;28;20214;-62
2021/04/02 06:59:31;;;;;;;56.00;26.47;;;7.40;99.90;;;;;;5031765;28;20211;-63
2021/04/02 07:01:58;;;;;;;54.90;27.67;;;7.50;99.90;;;;;;5032000;28;20218;-64
2021/04/02 07:04:25;;;;;;;50.07;26.03;;;7.70;99.90;;;;;;5031739;28;20194;-63
2021/04/02 07:06:52;;;;;;;57.73;26.43;;;7.70;99.90;;;;;;5032010;28;20668;-63
2021/04/02 07:09:21;;;;;;;56.83;26.40;;;7.90;99.90;;;;;;5031416;28;20250;-64
2021/04/02 07:11:50;;;;;;;61.37;29.50;;;8.00;99.90;;;;;;5031757;28;20210;-63
2021/04/02 07:14:17;;;;;;;56.37;27.07;;;8.10;99.90;;;;;;5031521;28;20263;-63
2021/04/02 07:16:43;;;;;;;56.00;27.00;;;8.20;99.90;;;;;;5031751;28;20241;-64
2021/04/02 07:19:09;;;;;;;47.63;25.37;;;8.20;99.90;;;;;;5031592;28;20211;-63
2021/04/02 07:21:35;;;;;;;53.03;26.90;;;8.10;99.90;;;;;;5030901;28;20186;-63
2021/04/02 07:24:02;;;;;;;55.40;28.10;;;8.10;99.90;;;;;;5031164;28;20194;-64
2021/04/02 07:26:28;;;;;;;57.43;28.30;;;8.20;99.90;;;;;;5031445;28;20179;-64
2021/04/02 07:28:55;;;;;;;46.83;24.63;;;8.30;99.90;;;;;;5031267;28;20226;-63
2021/04/02 07:31:22;;;;;;;39.70;22.30;;;8.30;99.90;;;;;;5031176;28;20172;-64
2021/04/02 07:33:49;;;;;;;44.07;23.07;;;8.20;99.90;;;;;;5031403;28;20183;-63
2021/04/02 07:36:17;;;;;;;42.70;24.67;;;8.10;99.90;;;;;;5031389;28;20183;-63
2021/04/02 07:38:52;;;;;;;55.17;26.83;;;8.00;99.90;;;;;;5031242;28;20273;-63
2021/04/02 07:41:18;;;;;;;45.23;25.87;;;8.00;99.90;;;;;;5030928;28;20195;-63
2021/04/02 07:43:53;;;;;;;59.40;28.73;;;8.10;99.90;;;;;;5031617;28;20207;-63
2021/04/02 07:46:21;;;;;;;56.67;27.93;;;8.30;99.90;;;;;;5031068;28;20191;-63
2021/04/02 07:49:07;;;;;;;45.50;26.77;;;8.40;99.90;;;;;;5031128;28;20758;-64
2021/04/02 07:51:50;;;;;;;46.90;26.50;;;8.60;99.90;;;;;;5030855;28;20179;-63
2021/04/02 07:54:28;;;;;;;51.40;28.37;;;8.70;99.90;;;;;;5031288;28;20178;-64
2021/04/02 07:56:57;;;;;;;57.63;29.10;;;8.60;99.90;;;;;;5031223;28;20179;-63
2021/04/02 07:59:34;;;;;;;55.00;28.60;;;8.50;99.90;;;;;;5031288;28;20199;-62
2021/04/02 08:02:03;;;;;;;53.80;26.60;;;8.50;99.90;;;;;;5030851;28;20480;-63
2021/04/02 08:04:57;;;;;;;55.67;28.13;;;8.60;99.90;;;;;;5030934;28;20556;-64
2021/04/02 08:07:37;;;;;;;52.93;27.90;;;8.70;99.90;;;;;;5028923;28;20195;-63
2021/04/02 08:10:10;;;;;;;44.17;25.13;;;8.80;99.90;;;;;;5030911;28;20203;-63
2021/04/02 08:12:36;;;;;;;50.40;24.90;;;8.50;99.90;;;;;;5030921;28;20325;-63
2021/04/02 08:15:16;;;;;;;48.83;25.07;;;8.40;99.90;;;;;;5032022;28;20533;-62
2021/04/02 08:17:41;;;;;;;45.30;23.27;;;8.40;99.90;;;;;;5030952;28;20195;-63
2021/04/02 08:20:25;;;;;;;45.20;23.40;;;8.30;99.90;;;;;;5030074;28;20183;-63
2021/04/02 08:22:52;;;;;;;35.77;21.43;;;8.30;99.90;;;;;;5030914;28;20659;-64
2021/04/02 08:25:22;;;;;;;40.67;22.23;;;8.30;99.90;;;;;;5031133;28;20641;-63
2021/04/02 08:27:48;;;;;;;38.80;22.87;;;8.50;99.90;;;;;;5030850;28;20594;-63
2021/04/02 08:30:15;;;;;;;44.27;22.67;;;8.70;99.90;;;;;;5030536;28;20211;-63
2021/04/02 08:32:47;;;;;;;42.33;23.17;;;9.00;99.90;;;;;;5030772;28;20176;-63
2021/04/02 08:35:17;;;;;;;45.90;22.80;;;9.20;99.90;;;;;;5030981;28;20172;-63
2021/04/02 08:37:59;;;;;;;40.90;23.00;;;9.30;99.90;;;;;;5034481;28;20562;-62
2021/04/02 08:40:25;;;;;;;38.87;21.93;;;9.10;99.90;;;;;;5034189;28;20249;-63
2021/04/02 08:42:51;;;;;;;32.93;19.43;;;9.20;99.90;;;;;;5033276;28;20686;-63
2021/04/02 08:45:19;;;;;;;18.70;10.93;;;9.20;99.90;;;;;;5014914;28;20222;-63
2021/04/02 08:47:48;;;;;;;10.77;8.70;;;9.40;99.90;;;;;;5014805;28;20230;-63
2021/04/02 08:50:14;;;;;;;11.80;7.57;;;9.60;99.90;;;;;;5033402;28;20625;-63
2021/04/02 08:52:39;;;;;;;9.20;7.27;;;9.60;99.90;;;;;;5034377;28;20697;-63
2021/04/02 08:55:07;;;;;;;8.13;6.43;;;9.70;99.90;;;;;;5033067;28;20700;-63
2021/04/02 08:57:34;;;;;;;12.13;6.50;;;9.70;99.90;;;;;;5033969;28;20186;-63
2021/04/02 09:00:03;;;;;;;12.40;6.47;;;9.90;99.90;;;;;;5034002;28;20653;-64
2021/04/02 09:02:31;;;;;;;9.50;6.50;;;9.80;99.90;;;;;;5034029;28;20266;-63
2021/04/02 09:05:00;;;;;;;10.33;7.00;;;9.70;99.90;;;;;;5034349;28;20179;-63
2021/04/02 09:07:25;;;;;;;9.37;6.20;;;9.90;99.90;;;;;;5033537;28;20254;-63
2021/04/02 09:09:51;;;;;;;12.30;6.27;;;10.10;99.90;;;;;;5057446;22;20226;-65
2021/04/02 09:12:19;;;;;;;10.03;6.50;;;10.20;99.90;;;;;;5034112;28;20184;-65
2021/04/02 09:14:50;;;;;;;8.90;6.63;;;10.30;99.90;;;;;;5034561;28;20194;-66
2021/04/02 09:17:23;;;;;;;9.67;6.90;;;10.30;99.90;;;;;;5033961;28;20516;-64
2021/04/02 09:19:50;;;;;;;7.97;6.30;;;10.20;99.90;;;;;;5033293;28;20199;-65
2021/04/02 09:22:17;;;;;;;8.23;6.50;;;10.20;99.90;;;;;;5033659;28;20186;-66
2021/04/02 09:24:44;;;;;;;9.40;5.77;;;10.00;99.90;;;;;;5033917;28;20375;-66
2021/04/02 09:27:16;;;;;;;9.03;6.30;;;9.80;99.90;;;;;;5034055;28;20174;-66
2021/04/02 09:29:59;;;;;;;9.63;6.03;;;9.90;99.90;;;;;;5032685;28;20207;-65
2021/04/02 09:32:32;;;;;;;11.87;6.47;;;10.30;99.90;;;;;;5033415;28;20182;-65
2021/04/02 09:34:59;;;;;;;7.60;6.00;;;10.60;99.90;;;;;;5033764;28;20629;-65
2021/04/02 09:37:29;;;;;;;9.97;6.97;;;10.70;99.90;;;;;;5033551;28;20594;-66
2021/04/02 09:39:59;;;;;;;8.93;5.77;;;10.90;99.90;;;;;;5018097;28;20295;-66
2021/04/02 09:42:26;;;;;;;9.80;5.97;;;10.90;99.90;;;;;;5033399;28;20203;-66
2021/04/02 09:44:52;;;;;;;8.93;5.67;;;10.80;99.90;;;;;;5033452;28;20533;-66
2021/04/02 09:47:18;;;;;;;8.30;6.13;;;10.60;99.90;;;;;;5033283;28;20226;-65
2021/04/02 09:49:44;;;;;;;8.93;5.60;;;10.40;99.90;;;;;;5033032;28;20634;-66
2021/04/02 09:52:10;;;;;;;8.63;6.43;;;10.30;99.90;;;;;;5033577;28;20207;-66
2021/04/02 09:54:37;;;;;;;8.13;6.30;;;10.10;99.90;;;;;;5033005;28;20171;-65
2021/04/02 09:57:05;;;;;;;10.53;7.00;;;10.30;99.90;;;;;;5033274;28;20175;-66
2021/04/02 09:59:31;;;;;;;8.77;6.53;;;10.30;99.90;;;;;;5033309;28;20616;-66
2021/04/02 10:01:57;;;;;;;9.83;7.33;;;10.30;99.90;;;;;;5032950;28;20187;-66
2021/04/02 10:04:25;;;;;;;17.93;11.43;;;10.50;99.90;;;;;;5033216;28;20706;-65
2021/04/02 10:06:51;;;;;;;14.77;8.80;;;10.40;99.90;;;;;;5033100;28;20648;-65
2021/04/02 10:09:17;;;;;;;12.77;7.47;;;10.30;99.90;;;;;;5032140;28;20207;-64
2021/04/02 10:11:46;;;;;;;10.87;6.67;;;10.30;99.90;;;;;;5032593;28;20180;-65
2021/04/02 10:14:12;;;;;;;11.67;6.67;;;10.30;99.90;;;;;;5033309;28;20168;-64
2021/04/02 10:16:39;;;;;;;7.63;5.53;;;10.50;99.90;;;;;;5032942;28;20232;-65
2021/04/02 10:19:05;;;;;;;9.23;5.80;;;10.80;99.90;;;;;;5032271;28;20611;-65
2021/04/02 10:21:33;;;;;;;5.77;5.20;;;10.80;99.90;;;;;;5032129;28;20187;-64
2021/04/02 10:23:59;;;;;;;9.57;6.33;;;10.80;99.90;;;;;;5032785;28;20579;-64
2021/04/02 10:26:26;;;;;;;8.90;5.53;;;11.00;99.90;;;;;;5032727;28;20230;-64
2021/04/02 10:28:51;;;;;;;6.70;5.40;;;11.40;99.90;;;;;;5032867;28;20285;-64
2021/04/02 10:31:17;;;;;;;6.33;5.23;;;12.10;99.90;;;;;;5032072;28;20171;-64
2021/04/02 10:33:43;;;;;;;8.33;5.40;;;12.00;99.90;;;;;;5032619;28;20176;-64
2021/04/02 10:36:09;;;;;;;4.60;3.97;;;11.80;99.90;;;;;;5032623;28;20229;-64
2021/04/02 10:38:35;;;;;;;6.57;4.57;;;11.80;99.90;;;;;;5032031;28;20211;-64
2021/04/02 10:41:01;;;;;;;6.83;4.73;;;11.80;99.90;;;;;;5031939;28;20525;-64
2021/04/02 10:43:26;;;;;;;10.33;4.77;;;11.80;99.90;;;;;;5032207;28;20225;-64
2021/04/02 10:45:52;;;;;;;6.77;5.07;;;11.80;99.90;;;;;;5032229;28;20195;-64
2021/04/02 10:48:19;;;;;;;11.57;6.70;;;11.60;99.90;;;;;;5032211;28;20221;-64
2021/04/02 10:50:45;;;;;;;11.23;6.80;;;11.20;99.90;;;;;;5031707;28;20680;-64
2021/04/02 10:53:12;;;;;;;8.17;7.17;;;10.90;99.90;;;;;;5032431;28;20297;-64
2021/04/02 10:55:38;;;;;;;9.77;7.60;;;10.90;99.90;;;;;;5032025;28;20193;-64
2021/04/02 10:58:06;;;;;;;13.30;10.03;;;10.80;99.90;;;;;;5032069;28;20270;-64
2021/04/02 11:00:36;;;;;;;12.87;10.33;;;10.60;99.90;;;;;;5029580;28;20191;-64
2021/04/02 11:03:03;;;;;;;12.23;9.87;;;10.50;99.90;;;;;;5032227;28;20175;-64
2021/04/02 11:05:30;;;;;;;22.67;14.83;;;10.40;99.90;;;;;;5031785;28;20180;-64
2021/04/02 11:07:55;;;;;;;35.03;22.23;;;10.40;99.90;;;;;;5031766;28;20684;-64
2021/04/02 11:10:21;;;;;;;29.73;22.53;;;10.40;99.90;;;;;;5030942;28;20214;-64
2021/04/02 11:12:47;;;;;;;32.30;23.67;;;10.30;99.90;;;;;;5031685;28;20171;-65
2021/04/02 11:15:13;;;;;;;28.03;20.93;;;10.20;99.90;;;;;;5031676;28;20171;-65
2021/04/02 11:17:41;;;;;;;34.07;24.27;;;10.10;99.90;;;;;;5031238;28;20202;-64
2021/04/02 11:20:07;;;;;;;34.90;26.37;;;9.80;99.90;;;;;;5031379;28;20326;-64
2021/04/02 11:22:33;;;;;;;41.60;28.20;;;9.80;99.90;;;;;;5031486;28;20222;-65
2021/04/02 11:24:59;;;;;;;47.07;29.27;;;9.80;99.90;;;;;;5031563;28;20175;-64
2021/04/02 11:27:24;;;;;;;45.60;28.57;;;9.90;99.90;;;;;;5031524;28;20533;-65
2021/04/02 11:29:55;;;;;;;47.23;28.90;;;9.90;99.90;;;;;;5031110;28;20242;-65
2021/04/02 11:32:21;;;;;;;41.77;28.67;;;9.80;99.90;;;;;;5031514;28;20213;-64
2021/04/02 11:34:46;;;;;;;41.57;28.20;;;9.70;99.90;;;;;;5031170;28;20171;-65
2021/04/02 11:37:12;;;;;;;44.03;29.37;;;9.70;99.90;;;;;;5031517;28;20179;-64
2021/04/02 11:39:38;;;;;;;45.13;27.47;;;9.60;99.90;;;;;;5031448;28;20223;-65
2021/04/02 11:42:04;;;;;;;47.00;27.87;;;9.60;99.90;;;;;;5031065;28;20658;-65
2021/04/02 11:44:30;;;;;;;42.30;27.87;;;9.70;99.90;;;;;;5031364;28;20652;-65
2021/04/02 11:46:55;;;;;;;47.63;29.40;;;9.60;99.90;;;;;;5031368;28;20179;-65
2021/04/02 11:49:21;;;;;;;44.57;28.67;;;9.70;99.90;;;;;;5031281;28;20217;-65
2021/04/02 11:51:47;;;;;;;44.57;30.13;;;9.80;99.90;;;;;;5030913;28;20172;-65
2021/04/02 11:54:12;;;;;;;50.80;30.87;;;9.90;99.90;;;;;;5031460;28;20191;-65
2021/04/02 11:56:39;;;;;;;49.90;31.67;;;10.00;99.90;;;;;;5030872;28;20180;-65
2021/04/02 11:59:05;;;;;;;45.73;30.23;;;10.10;99.90;;;;;;5031293;28;20199;-65
2021/04/02 12:01:31;;;;;;;53.73;32.93;;;10.20;99.90;;;;;;5030605;28;20595;-65
2021/04/02 12:03:57;;;;;;;47.17;32.37;;;10.40;99.90;;;;;;5030784;28;20182;-65
2021/04/02 12:06:22;;;;;;;48.17;30.47;;;10.50;99.90;;;;;;5031045;28;20175;-65
2021/04/02 12:08:48;;;;;;;34.80;21.07;;;10.40;99.90;;;;;;5030774;28;20235;-65
2021/04/02 12:11:14;;;;;;;26.40;16.47;;;10.20;99.90;;;;;;5033913;28;20645;-65
2021/04/02 12:13:39;;;;;;;21.07;13.53;;;9.70;99.90;;;;;;5035199;28;20175;-64
2021/04/02 12:16:05;;;;;;;26.40;15.47;;;9.40;99.90;;;;;;5035288;28;20168;-65
2021/04/02 12:18:31;;;;;;;26.33;15.27;;;9.20;99.90;;;;;;5034797;28;20191;-65
2021/04/02 12:20:57;;;;;;;29.87;18.33;;;9.20;99.90;;;;;;5035538;28;20171;-65
2021/04/02 12:23:22;;;;;;;26.83;17.03;;;9.00;99.90;;;;;;5034741;28;20186;-65
2021/04/02 12:25:48;;;;;;;33.43;19.60;;;9.00;99.90;;;;;;5035134;28;20163;-64
2021/04/02 12:28:14;;;;;;;33.20;21.47;;;8.90;99.90;;;;;;5034595;28;20195;-64
2021/04/02 12:30:39;;;;;;;43.90;24.27;;;8.90;99.90;;;;;;5033651;28;20171;-63
2021/04/02 12:33:05;;;;;;;53.87;28.57;;;8.80;99.90;;;;;;5034952;28;20168;-63
2021/04/02 12:35:32;;;;;;;44.87;25.73;;;8.90;99.90;;;;;;5034848;28;20266;-63
2021/04/02 12:37:57;;;;;;;36.57;22.17;;;8.70;99.90;;;;;;5034859;28;20168;-65
2021/04/02 12:40:24;;;;;;;30.23;18.60;;;8.80;99.90;;;;;;5034285;28;20176;-65
2021/04/02 12:42:50;;;;;;;19.10;12.53;;;8.80;99.90;;;;;;5034994;28;20176;-65
2021/04/02 12:45:16;;;;;;;18.07;10.70;;;8.80;99.90;;;;;;5033996;28;20314;-67
2021/04/02 12:47:44;;;;;;;14.20;7.23;;;8.60;99.90;;;;;;5034705;28;20408;-66